sensor_id;sensor_type;location;lat;lon;timestamp;P1;durP1;ratioP1;P2;durP2;ratioP2
19664;SDS011;9980;51.020;7.772;2023-06-22T00:01:20;6.90;;;6.40;;
19664;SDS011;9980;51.020;7.772;2023-06-22T00:03:49;6.67;;;5.97;;
19664;SDS011;9980;51.020;7.772;2023-06-22T00:06:16;8.53;;;6.93;;
19664;SDS011;9980;51.020;7.772;2023-06-22T00:08:43;7.77;;;7.07;;
19664;SDS011;9980;51.020;7.772;2023-06-22T00:11:10;7.27;;;5.90;;
19664;SDS011;9980;51.020;7.772;2023-06-22T00:13:38;6.97;;;6.37;;
19664;SDS011;9980;51.020;7.772;2023-06-22T00:16:06;6.40;;;5.33;;
19664;SDS011;9980;51.020;7.772;2023-06-22T00:18:33;6.00;;;5.47;;
19664;SDS011;9980;51.020;7.772;2023-06-22T00:21:00;7.43;;;6.83;;
19664;SDS011;9980;51.020;7.772;2023-06-22T00:23:27;7.10;;;6.50;;
19664;SDS011;9980;51.020;7.772;2023-06-22T00:25:54;6.40;;;5.90;;
19664;SDS011;9980;51.020;7.772;2023-06-22T00:28:21;6.57;;;6.07;;
19664;SDS011;9980;51.020;7.772;2023-06-22T00:30:51;6.67;;;6.07;;
19664;SDS011;9980;51.020;7.772;2023-06-22T00:33:18;6.17;;;5.67;;
19664;SDS011;9980;51.020;7.772;2023-06-22T00:35:45;6.60;;;6.10;;
19664;SDS011;9980;51.020;7.772;2023-06-22T00:38:12;6.37;;;5.77;;
19664;SDS011;9980;51.020;7.772;2023-06-22T00:40:41;8.20;;;7.43;;
19664;SDS011;9980;51.020;7.772;2023-06-22T00:43:07;8.03;;;7.33;;
19664;SDS011;9980;51.020;7.772;2023-06-22T00:45:35;8.27;;;7.50;;
19664;SDS011;9980;51.020;7.772;2023-06-22T00:48:02;8.87;;;8.07;;
19664;SDS011;9980;51.020;7.772;2023-06-22T00:50:30;7.83;;;7.13;;
19664;SDS011;9980;51.020;7.772;2023-06-22T00:53:01;8.83;;;8.03;;
19664;SDS011;9980;51.020;7.772;2023-06-22T00:55:36;9.03;;;8.20;;
19664;SDS011;9980;51.020;7.772;2023-06-22T00:58:09;9.33;;;8.53;;
19664;SDS011;9980;51.020;7.772;2023-06-22T01:00:38;7.77;;;7.10;;
19664;SDS011;9980;51.020;7.772;2023-06-22T01:03:06;9.10;;;8.30;;
19664;SDS011;9980;51.020;7.772;2023-06-22T01:05:37;7.87;;;7.27;;
19664;SDS011;9980;51.020;7.772;2023-06-22T01:10:55;8.63;;;7.87;;
19664;SDS011;9980;51.020;7.772;2023-06-22T01:16:18;9.77;;;8.77;;
19664;SDS011;9980;51.020;7.772;2023-06-22T01:18:52;9.13;;;8.20;;
19664;SDS011;9980;51.020;7.772;2023-06-22T01:21:24;8.13;;;7.27;;
19664;SDS011;9980;51.020;7.772;2023-06-22T01:24:11;8.70;;;7.90;;
19664;SDS011;9980;51.020;7.772;2023-06-22T01:29:39;7.47;;;6.87;;
19664;SDS011;9980;51.020;7.772;2023-06-22T01:32:09;8.10;;;7.40;;
19664;SDS011;9980;51.020;7.772;2023-06-22T01:34:37;7.60;;;6.90;;
19664;SDS011;9980;51.020;7.772;2023-06-22T01:37:06;7.77;;;7.07;;
19664;SDS011;9980;51.020;7.772;2023-06-22T01:39:34;6.27;;;5.77;;
19664;SDS011;9980;51.020;7.772;2023-06-22T01:42:02;6.30;;;5.70;;
19664;SDS011;9980;51.020;7.772;2023-06-22T01:44:31;5.67;;;5.20;;
19664;SDS011;9980;51.020;7.772;2023-06-22T01:47:00;6.10;;;5.60;;
19664;SDS011;9980;51.020;7.772;2023-06-22T01:49:28;6.93;;;6.37;;
19664;SDS011;9980;51.020;7.772;2023-06-22T01:51:56;8.37;;;7.50;;
19664;SDS011;9980;51.020;7.772;2023-06-22T01:54:23;6.67;;;6.13;;
19664;SDS011;9980;51.020;7.772;2023-06-22T01:56:50;6.00;;;5.50;;
19664;SDS011;9980;51.020;7.772;2023-06-22T01:59:20;8.33;;;7.57;;
19664;SDS011;9980;51.020;7.772;2023-06-22T02:02:04;8.07;;;7.37;;
19664;SDS011;9980;51.020;7.772;2023-06-22T02:04:48;6.70;;;6.10;;
19664;SDS011;9980;51.020;7.772;2023-06-22T02:07:23;5.97;;;5.10;;
19664;SDS011;9980;51.020;7.772;2023-06-22T02:10:14;5.77;;;5.27;;
19664;SDS011;9980;51.020;7.772;2023-06-22T02:12:46;7.17;;;6.57;;
19664;SDS011;9980;51.020;7.772;2023-06-22T02:15:15;7.70;;;7.10;;
19664;SDS011;9980;51.020;7.772;2023-06-22T02:17:45;7.00;;;6.40;;
19664;SDS011;9980;51.020;7.772;2023-06-22T02:20:14;6.50;;;5.90;;
19664;SDS011;9980;51.020;7.772;2023-06-22T02:22:41;7.90;;;7.20;;
19664;SDS011;9980;51.020;7.772;2023-06-22T02:25:10;5.97;;;5.33;;
19664;SDS011;9980;51.020;7.772;2023-06-22T02:27:37;6.27;;;5.67;;
19664;SDS011;9980;51.020;7.772;2023-06-22T02:30:09;6.80;;;6.20;;
19664;SDS011;9980;51.020;7.772;2023-06-22T02:32:38;6.00;;;5.53;;
19664;SDS011;9980;51.020;7.772;2023-06-22T02:35:08;6.30;;;5.80;;
19664;SDS011;9980;51.020;7.772;2023-06-22T02:37:36;7.10;;;6.47;;
19664;SDS011;9980;51.020;7.772;2023-06-22T02:40:08;6.93;;;6.27;;
19664;SDS011;9980;51.020;7.772;2023-06-22T02:42:36;7.63;;;6.93;;
19664;SDS011;9980;51.020;7.772;2023-06-22T02:45:04;6.77;;;6.20;;
19664;SDS011;9980;51.020;7.772;2023-06-22T02:47:31;7.00;;;6.50;;
19664;SDS011;9980;51.020;7.772;2023-06-22T02:49:59;6.57;;;5.97;;
19664;SDS011;9980;51.020;7.772;2023-06-22T02:52:27;6.20;;;5.70;;
19664;SDS011;9980;51.020;7.772;2023-06-22T02:54:54;6.40;;;5.80;;
19664;SDS011;9980;51.020;7.772;2023-06-22T02:57:21;6.37;;;5.87;;
19664;SDS011;9980;51.020;7.772;2023-06-22T02:59:48;7.67;;;7.07;;
19664;SDS011;9980;51.020;7.772;2023-06-22T03:02:15;7.00;;;6.27;;
19664;SDS011;9980;51.020;7.772;2023-06-22T03:04:42;7.87;;;7.23;;
19664;SDS011;9980;51.020;7.772;2023-06-22T03:07:09;7.03;;;6.43;;
19664;SDS011;9980;51.020;7.772;2023-06-22T03:09:36;6.77;;;6.17;;
19664;SDS011;9980;51.020;7.772;2023-06-22T03:12:03;6.77;;;6.27;;
19664;SDS011;9980;51.020;7.772;2023-06-22T03:14:41;7.33;;;6.70;;
19664;SDS011;9980;51.020;7.772;2023-06-22T03:17:09;6.40;;;5.90;;
19664;SDS011;9980;51.020;7.772;2023-06-22T03:19:37;6.37;;;5.77;;
19664;SDS011;9980;51.020;7.772;2023-06-22T03:22:04;6.80;;;6.20;;
19664;SDS011;9980;51.020;7.772;2023-06-22T03:24:31;7.90;;;7.10;;
19664;SDS011;9980;51.020;7.772;2023-06-22T03:26:58;10.03;;;9.23;;
19664;SDS011;9980;51.020;7.772;2023-06-22T03:29:26;9.57;;;8.67;;
19664;SDS011;9980;51.020;7.772;2023-06-22T03:31:56;9.30;;;8.47;;
19664;SDS011;9980;51.020;7.772;2023-06-22T03:34:24;9.43;;;8.63;;
19664;SDS011;9980;51.020;7.772;2023-06-22T03:36:52;8.90;;;8.20;;
19664;SDS011;9980;51.020;7.772;2023-06-22T03:39:19;8.20;;;7.50;;
19664;SDS011;9980;51.020;7.772;2023-06-22T03:41:47;7.20;;;6.60;;
19664;SDS011;9980;51.020;7.772;2023-06-22T03:44:14;7.20;;;6.60;;
19664;SDS011;9980;51.020;7.772;2023-06-22T03:46:42;9.23;;;8.37;;
19664;SDS011;9980;51.020;7.772;2023-06-22T03:49:08;7.03;;;6.53;;
19664;SDS011;9980;51.020;7.772;2023-06-22T03:51:35;10.80;;;9.70;;
19664;SDS011;9980;51.020;7.772;2023-06-22T03:54:02;7.97;;;7.27;;
19664;SDS011;9980;51.020;7.772;2023-06-22T03:56:29;9.03;;;8.23;;
19664;SDS011;9980;51.020;7.772;2023-06-22T03:58:57;10.33;;;9.47;;
19664;SDS011;9980;51.020;7.772;2023-06-22T04:01:24;9.60;;;8.70;;
19664;SDS011;9980;51.020;7.772;2023-06-22T04:03:51;8.60;;;7.90;;
19664;SDS011;9980;51.020;7.772;2023-06-22T04:06:18;10.00;;;8.93;;
19664;SDS011;9980;51.020;7.772;2023-06-22T04:08:45;10.07;;;9.17;;
19664;SDS011;9980;51.020;7.772;2023-06-22T04:11:17;9.47;;;8.57;;
19664;SDS011;9980;51.020;7.772;2023-06-22T04:13:44;8.90;;;8.10;;
19664;SDS011;9980;51.020;7.772;2023-06-22T04:16:11;10.93;;;9.10;;
19664;SDS011;9980;51.020;7.772;2023-06-22T04:18:38;9.60;;;8.70;;
19664;SDS011;9980;51.020;7.772;2023-06-22T04:21:05;10.80;;;9.77;;
19664;SDS011;9980;51.020;7.772;2023-06-22T04:23:32;11.90;;;9.93;;
19664;SDS011;9980;51.020;7.772;2023-06-22T04:25:59;8.80;;;8.10;;
19664;SDS011;9980;51.020;7.772;2023-06-22T04:28:26;9.47;;;8.67;;
19664;SDS011;9980;51.020;7.772;2023-06-22T04:30:53;10.60;;;9.70;;
19664;SDS011;9980;51.020;7.772;2023-06-22T04:33:24;10.10;;;9.20;;
19664;SDS011;9980;51.020;7.772;2023-06-22T04:35:51;11.40;;;10.10;;
19664;SDS011;9980;51.020;7.772;2023-06-22T04:38:18;8.80;;;8.00;;
19664;SDS011;9980;51.020;7.772;2023-06-22T04:40:47;10.53;;;9.63;;
19664;SDS011;9980;51.020;7.772;2023-06-22T04:43:14;9.63;;;8.83;;
19664;SDS011;9980;51.020;7.772;2023-06-22T04:45:41;11.23;;;10.17;;
19664;SDS011;9980;51.020;7.772;2023-06-22T04:48:08;11.77;;;10.70;;
19664;SDS011;9980;51.020;7.772;2023-06-22T04:50:36;10.73;;;9.80;;
19664;SDS011;9980;51.020;7.772;2023-06-22T04:53:05;9.40;;;8.60;;
19664;SDS011;9980;51.020;7.772;2023-06-22T04:55:32;11.23;;;10.20;;
19664;SDS011;9980;51.020;7.772;2023-06-22T04:57:59;11.57;;;10.53;;
19664;SDS011;9980;51.020;7.772;2023-06-22T05:00:31;10.83;;;9.73;;
19664;SDS011;9980;51.020;7.772;2023-06-22T05:02:58;10.47;;;9.47;;
19664;SDS011;9980;51.020;7.772;2023-06-22T05:05:44;11.87;;;10.73;;
19664;SDS011;9980;51.020;7.772;2023-06-22T05:08:11;12.33;;;11.23;;
19664;SDS011;9980;51.020;7.772;2023-06-22T05:10:39;11.33;;;10.23;;
19664;SDS011;9980;51.020;7.772;2023-06-22T05:13:24;10.73;;;9.70;;
19664;SDS011;9980;51.020;7.772;2023-06-22T05:15:53;9.77;;;8.77;;
19664;SDS011;9980;51.020;7.772;2023-06-22T05:18:28;10.33;;;9.43;;
19664;SDS011;9980;51.020;7.772;2023-06-22T05:20:57;11.43;;;10.33;;
19664;SDS011;9980;51.020;7.772;2023-06-22T05:23:25;10.80;;;9.90;;
19664;SDS011;9980;51.020;7.772;2023-06-22T05:25:52;12.27;;;11.17;;
19664;SDS011;9980;51.020;7.772;2023-06-22T05:28:21;11.80;;;10.70;;
19664;SDS011;9980;51.020;7.772;2023-06-22T05:30:49;12.70;;;11.10;;
19664;SDS011;9980;51.020;7.772;2023-06-22T05:33:16;12.57;;;11.37;;
19664;SDS011;9980;51.020;7.772;2023-06-22T05:35:43;13.47;;;12.27;;
19664;SDS011;9980;51.020;7.772;2023-06-22T05:38:10;12.53;;;11.33;;
19664;SDS011;9980;51.020;7.772;2023-06-22T05:40:37;11.27;;;10.13;;
19664;SDS011;9980;51.020;7.772;2023-06-22T05:43:05;12.07;;;10.77;;
19664;SDS011;9980;51.020;7.772;2023-06-22T05:45:32;11.40;;;10.30;;
19664;SDS011;9980;51.020;7.772;2023-06-22T05:47:59;12.40;;;11.23;;
19664;SDS011;9980;51.020;7.772;2023-06-22T05:50:27;11.67;;;10.40;;
19664;SDS011;9980;51.020;7.772;2023-06-22T05:52:54;12.57;;;10.30;;
19664;SDS011;9980;51.020;7.772;2023-06-22T05:55:21;11.50;;;10.30;;
19664;SDS011;9980;51.020;7.772;2023-06-22T05:57:48;12.87;;;10.97;;
19664;SDS011;9980;51.020;7.772;2023-06-22T06:00:15;11.97;;;10.80;;
19664;SDS011;9980;51.020;7.772;2023-06-22T06:02:43;12.53;;;11.33;;
19664;SDS011;9980;51.020;7.772;2023-06-22T06:05:13;11.87;;;10.77;;
19664;SDS011;9980;51.020;7.772;2023-06-22T06:07:41;11.13;;;10.13;;
19664;SDS011;9980;51.020;7.772;2023-06-22T06:10:09;14.07;;;11.17;;
19664;SDS011;9980;51.020;7.772;2023-06-22T06:12:36;12.07;;;11.03;;
19664;SDS011;9980;51.020;7.772;2023-06-22T06:15:03;11.33;;;10.23;;
19664;SDS011;9980;51.020;7.772;2023-06-22T06:17:32;11.10;;;10.10;;
19664;SDS011;9980;51.020;7.772;2023-06-22T06:19:59;12.07;;;10.97;;
19664;SDS011;9980;51.020;7.772;2023-06-22T06:22:26;10.63;;;9.63;;
19664;SDS011;9980;51.020;7.772;2023-06-22T06:24:53;11.20;;;10.20;;
19664;SDS011;9980;51.020;7.772;2023-06-22T06:27:21;11.53;;;10.43;;
19664;SDS011;9980;51.020;7.772;2023-06-22T06:29:55;11.00;;;10.00;;
19664;SDS011;9980;51.020;7.772;2023-06-22T06:32:22;10.90;;;10.00;;
19664;SDS011;9980;51.020;7.772;2023-06-22T06:34:50;10.90;;;9.88;;
19664;SDS011;9980;51.020;7.772;2023-06-22T06:37:17;9.65;;;8.85;;
19664;SDS011;9980;51.020;7.772;2023-06-22T06:39:44;10.52;;;9.52;;
19664;SDS011;9980;51.020;7.772;2023-06-22T06:42:11;9.73;;;8.82;;
19664;SDS011;9980;51.020;7.772;2023-06-22T06:44:39;8.00;;;7.30;;
19664;SDS011;9980;51.020;7.772;2023-06-22T06:47:06;8.77;;;7.97;;
19664;SDS011;9980;51.020;7.772;2023-06-22T06:49:33;8.47;;;7.73;;
19664;SDS011;9980;51.020;7.772;2023-06-22T06:52:00;8.70;;;7.93;;
19664;SDS011;9980;51.020;7.772;2023-06-22T06:54:27;8.65;;;7.88;;
19664;SDS011;9980;51.020;7.772;2023-06-22T06:56:54;9.32;;;8.43;;
19664;SDS011;9980;51.020;7.772;2023-06-22T06:59:21;9.98;;;8.25;;
19664;SDS011;9980;51.020;7.772;2023-06-22T07:01:48;9.32;;;8.43;;
19664;SDS011;9980;51.020;7.772;2023-06-22T07:04:15;8.57;;;7.80;;
19664;SDS011;9980;51.020;7.772;2023-06-22T07:06:42;7.35;;;6.75;;
19664;SDS011;9980;51.020;7.772;2023-06-22T07:09:09;7.75;;;7.05;;
19664;SDS011;9980;51.020;7.772;2023-06-22T07:11:36;7.75;;;6.88;;
19664;SDS011;9980;51.020;7.772;2023-06-22T07:14:03;8.30;;;7.55;;
19664;SDS011;9980;51.020;7.772;2023-06-22T07:16:30;7.03;;;6.45;;
19664;SDS011;9980;51.020;7.772;2023-06-22T07:18:57;8.75;;;7.57;;
19664;SDS011;9980;51.020;7.772;2023-06-22T07:21:24;7.47;;;6.78;;
19664;SDS011;9980;51.020;7.772;2023-06-22T07:23:51;7.93;;;6.93;;
19664;SDS011;9980;51.020;7.772;2023-06-22T07:26:18;8.52;;;7.72;;
19664;SDS011;9980;51.020;7.772;2023-06-22T07:28:45;7.95;;;7.18;;
19664;SDS011;9980;51.020;7.772;2023-06-22T07:31:12;7.93;;;7.15;;
19664;SDS011;9980;51.020;7.772;2023-06-22T07:33:39;7.43;;;6.75;;
19664;SDS011;9980;51.020;7.772;2023-06-22T07:36:06;7.53;;;6.82;;
19664;SDS011;9980;51.020;7.772;2023-06-22T07:38:34;7.60;;;6.90;;
19664;SDS011;9980;51.020;7.772;2023-06-22T07:41:01;7.40;;;6.80;;
19664;SDS011;9980;51.020;7.772;2023-06-22T07:43:31;7.63;;;7.03;;
19664;SDS011;9980;51.020;7.772;2023-06-22T07:46:00;8.07;;;7.38;;
19664;SDS011;9980;51.020;7.772;2023-06-22T07:48:27;8.32;;;7.53;;
19664;SDS011;9980;51.020;7.772;2023-06-22T07:50:54;8.10;;;7.40;;
19664;SDS011;9980;51.020;7.772;2023-06-22T07:53:21;8.30;;;7.60;;
19664;SDS011;9980;51.020;7.772;2023-06-22T07:55:49;7.72;;;6.97;;
19664;SDS011;9980;51.020;7.772;2023-06-22T07:58:16;8.90;;;8.00;;
19664;SDS011;9980;51.020;7.772;2023-06-22T08:00:45;9.00;;;8.30;;
19664;SDS011;9980;51.020;7.772;2023-06-22T08:03:13;9.30;;;8.40;;
19664;SDS011;9980;51.020;7.772;2023-06-22T08:05:40;8.32;;;7.10;;
19664;SDS011;9980;51.020;7.772;2023-06-22T08:08:07;8.27;;;7.47;;
19664;SDS011;9980;51.020;7.772;2023-06-22T08:10:33;8.50;;;7.70;;
19664;SDS011;9980;51.020;7.772;2023-06-22T08:13:00;8.80;;;8.00;;
19664;SDS011;9980;51.020;7.772;2023-06-22T08:15:27;8.57;;;7.78;;
19664;SDS011;9980;51.020;7.772;2023-06-22T08:17:55;8.43;;;7.40;;
19664;SDS011;9980;51.020;7.772;2023-06-22T08:20:24;8.45;;;7.65;;
19664;SDS011;9980;51.020;7.772;2023-06-22T08:22:51;8.32;;;7.53;;
19664;SDS011;9980;51.020;7.772;2023-06-22T08:25:20;9.23;;;8.32;;
19664;SDS011;9980;51.020;7.772;2023-06-22T08:27:47;8.50;;;7.72;;
19664;SDS011;9980;51.020;7.772;2023-06-22T08:30:15;8.65;;;7.88;;
19664;SDS011;9980;51.020;7.772;2023-06-22T08:32:44;9.10;;;8.30;;
19664;SDS011;9980;51.020;7.772;2023-06-22T08:35:11;9.60;;;8.65;;
19664;SDS011;9980;51.020;7.772;2023-06-22T08:37:38;9.88;;;8.98;;
19664;SDS011;9980;51.020;7.772;2023-06-22T08:40:06;8.93;;;8.13;;
19664;SDS011;9980;51.020;7.772;2023-06-22T08:42:36;10.57;;;9.45;;
19664;SDS011;9980;51.020;7.772;2023-06-22T08:45:04;9.27;;;8.43;;
19664;SDS011;9980;51.020;7.772;2023-06-22T08:47:32;10.77;;;9.65;;
19664;SDS011;9980;51.020;7.772;2023-06-22T08:49:59;10.65;;;9.65;;
19664;SDS011;9980;51.020;7.772;2023-06-22T08:52:28;9.10;;;8.20;;
19664;SDS011;9980;51.020;7.772;2023-06-22T08:54:55;8.77;;;8.05;;
19664;SDS011;9980;51.020;7.772;2023-06-22T08:57:24;8.98;;;8.23;;
19664;SDS011;9980;51.020;7.772;2023-06-22T08:59:51;9.15;;;8.25;;
19664;SDS011;9980;51.020;7.772;2023-06-22T09:02:19;8.98;;;8.18;;
19664;SDS011;9980;51.020;7.772;2023-06-22T09:04:46;8.68;;;7.88;;
19664;SDS011;9980;51.020;7.772;2023-06-22T09:07:13;8.70;;;7.75;;
19664;SDS011;9980;51.020;7.772;2023-06-22T09:09:40;9.38;;;8.57;;
19664;SDS011;9980;51.020;7.772;2023-06-22T09:12:07;9.25;;;8.45;;
19664;SDS011;9980;51.020;7.772;2023-06-22T09:14:35;10.15;;;9.07;;
19664;SDS011;9980;51.020;7.772;2023-06-22T09:17:02;9.65;;;8.75;;
19664;SDS011;9980;51.020;7.772;2023-06-22T09:19:29;9.00;;;7.85;;
19664;SDS011;9980;51.020;7.772;2023-06-22T09:21:56;10.75;;;8.52;;
19664;SDS011;9980;51.020;7.772;2023-06-22T09:24:23;9.23;;;8.27;;
19664;SDS011;9980;51.020;7.772;2023-06-22T09:26:50;10.20;;;7.78;;
19664;SDS011;9980;51.020;7.772;2023-06-22T09:29:17;7.65;;;6.97;;
19664;SDS011;9980;51.020;7.772;2023-06-22T09:31:44;7.28;;;6.68;;
19664;SDS011;9980;51.020;7.772;2023-06-22T09:34:11;8.07;;;7.28;;
19664;SDS011;9980;51.020;7.772;2023-06-22T09:36:38;7.82;;;7.05;;
19664;SDS011;9980;51.020;7.772;2023-06-22T09:39:07;7.00;;;6.40;;
19664;SDS011;9980;51.020;7.772;2023-06-22T09:41:33;9.43;;;6.93;;
19664;SDS011;9980;51.020;7.772;2023-06-22T09:44:00;7.32;;;6.68;;
19664;SDS011;9980;51.020;7.772;2023-06-22T09:46:27;7.65;;;6.95;;
19664;SDS011;9980;51.020;7.772;2023-06-22T09:48:55;7.20;;;6.50;;
19664;SDS011;9980;51.020;7.772;2023-06-22T09:51:22;7.60;;;6.78;;
19664;SDS011;9980;51.020;7.772;2023-06-22T09:53:50;8.32;;;6.65;;
19664;SDS011;9980;51.020;7.772;2023-06-22T09:56:19;7.40;;;6.63;;
19664;SDS011;9980;51.020;7.772;2023-06-22T09:58:46;6.18;;;5.57;;
19664;SDS011;9980;51.020;7.772;2023-06-22T10:01:13;10.63;;;6.65;;
19664;SDS011;9980;51.020;7.772;2023-06-22T10:03:40;8.25;;;6.35;;
19664;SDS011;9980;51.020;7.772;2023-06-22T10:06:08;7.07;;;6.45;;
19664;SDS011;9980;51.020;7.772;2023-06-22T10:08:35;8.93;;;6.45;;
19664;SDS011;9980;51.020;7.772;2023-06-22T10:11:03;7.00;;;6.32;;
19664;SDS011;9980;51.020;7.772;2023-06-22T10:13:30;7.30;;;6.38;;
19664;SDS011;9980;51.020;7.772;2023-06-22T10:15:57;6.70;;;6.03;;
19664;SDS011;9980;51.020;7.772;2023-06-22T10:18:24;6.65;;;6.00;;
19664;SDS011;9980;51.020;7.772;2023-06-22T10:20:51;7.00;;;6.30;;
19664;SDS011;9980;51.020;7.772;2023-06-22T10:23:21;7.70;;;5.93;;
19664;SDS011;9980;51.020;7.772;2023-06-22T10:25:49;6.75;;;6.15;;
19664;SDS011;9980;51.020;7.772;2023-06-22T10:28:16;12.50;;;6.30;;
19664;SDS011;9980;51.020;7.772;2023-06-22T10:30:43;9.45;;;6.13;;
19664;SDS011;9980;51.020;7.772;2023-06-22T10:33:11;7.13;;;6.15;;
19664;SDS011;9980;51.020;7.772;2023-06-22T10:35:38;6.07;;;5.57;;
19664;SDS011;9980;51.020;7.772;2023-06-22T10:38:05;5.88;;;5.38;;
19664;SDS011;9980;51.020;7.772;2023-06-22T10:40:34;7.18;;;6.55;;
19664;SDS011;9980;51.020;7.772;2023-06-22T10:43:01;6.35;;;5.85;;
19664;SDS011;9980;51.020;7.772;2023-06-22T10:45:28;7.55;;;6.07;;
19664;SDS011;9980;51.020;7.772;2023-06-22T10:47:56;7.22;;;6.53;;
19664;SDS011;9980;51.020;7.772;2023-06-22T10:50:23;7.70;;;6.55;;
19664;SDS011;9980;51.020;7.772;2023-06-22T10:52:51;7.40;;;6.70;;
19664;SDS011;9980;51.020;7.772;2023-06-22T10:55:18;7.78;;;6.25;;
19664;SDS011;9980;51.020;7.772;2023-06-22T10:57:45;7.60;;;6.95;;
19664;SDS011;9980;51.020;7.772;2023-06-22T11:00:14;6.05;;;5.47;;
19664;SDS011;9980;51.020;7.772;2023-06-22T11:02:42;6.90;;;6.20;;
19664;SDS011;9980;51.020;7.772;2023-06-22T11:05:10;7.70;;;6.50;;
19664;SDS011;9980;51.020;7.772;2023-06-22T11:07:41;10.98;;;6.80;;
19664;SDS011;9980;51.020;7.772;2023-06-22T11:10:14;10.68;;;7.43;;
19664;SDS011;9980;51.020;7.772;2023-06-22T11:12:42;9.57;;;7.45;;
19664;SDS011;9980;51.020;7.772;2023-06-22T11:15:09;6.55;;;5.95;;
19664;SDS011;9980;51.020;7.772;2023-06-22T11:17:36;10.07;;;7.43;;
19664;SDS011;9980;51.020;7.772;2023-06-22T11:20:03;9.40;;;7.25;;
19664;SDS011;9980;51.020;7.772;2023-06-22T11:22:37;9.63;;;7.20;;
19664;SDS011;9980;51.020;7.772;2023-06-22T11:25:06;8.05;;;6.95;;
19664;SDS011;9980;51.020;7.772;2023-06-22T11:27:34;8.35;;;7.53;;
19664;SDS011;9980;51.020;7.772;2023-06-22T11:30:01;8.88;;;7.35;;
19664;SDS011;9980;51.020;7.772;2023-06-22T11:32:29;8.27;;;7.53;;
19664;SDS011;9980;51.020;7.772;2023-06-22T11:34:56;8.25;;;7.40;;
19664;SDS011;9980;51.020;7.772;2023-06-22T11:37:23;8.82;;;7.93;;
19664;SDS011;9980;51.020;7.772;2023-06-22T11:39:51;10.18;;;7.78;;
19664;SDS011;9980;51.020;7.772;2023-06-22T11:42:24;8.45;;;7.10;;
19664;SDS011;9980;51.020;7.772;2023-06-22T11:44:51;8.32;;;7.53;;
19664;SDS011;9980;51.020;7.772;2023-06-22T11:47:18;9.60;;;7.63;;
19664;SDS011;9980;51.020;7.772;2023-06-22T11:49:45;9.50;;;7.25;;
19664;SDS011;9980;51.020;7.772;2023-06-22T11:52:12;8.70;;;7.75;;
19664;SDS011;9980;51.020;7.772;2023-06-22T11:54:39;9.70;;;8.70;;
19664;SDS011;9980;51.020;7.772;2023-06-22T11:57:06;12.15;;;7.85;;
19664;SDS011;9980;51.020;7.772;2023-06-22T11:59:33;11.75;;;7.57;;
19664;SDS011;9980;51.020;7.772;2023-06-22T12:02:00;11.55;;;8.13;;
19664;SDS011;9980;51.020;7.772;2023-06-22T12:04:27;10.68;;;8.98;;
19664;SDS011;9980;51.020;7.772;2023-06-22T12:06:54;10.05;;;8.50;;
19664;SDS011;9980;51.020;7.772;2023-06-22T12:09:21;11.05;;;8.75;;
19664;SDS011;9980;51.020;7.772;2023-06-22T12:11:48;9.75;;;8.07;;
19664;SDS011;9980;51.020;7.772;2023-06-22T12:14:15;10.48;;;8.20;;
19664;SDS011;9980;51.020;7.772;2023-06-22T12:16:41;11.65;;;8.93;;
19664;SDS011;9980;51.020;7.772;2023-06-22T12:19:10;9.68;;;8.77;;
19664;SDS011;9980;51.020;7.772;2023-06-22T12:21:37;11.32;;;9.55;;
19664;SDS011;9980;51.020;7.772;2023-06-22T12:24:06;9.70;;;8.32;;
19664;SDS011;9980;51.020;7.772;2023-06-22T12:26:33;8.98;;;8.05;;
19664;SDS011;9980;51.020;7.772;2023-06-22T12:29:00;9.43;;;8.63;;
19664;SDS011;9980;51.020;7.772;2023-06-22T12:31:27;9.13;;;8.30;;
19664;SDS011;9980;51.020;7.772;2023-06-22T12:33:54;11.73;;;9.27;;
19664;SDS011;9980;51.020;7.772;2023-06-22T12:36:21;10.57;;;9.57;;
19664;SDS011;9980;51.020;7.772;2023-06-22T12:38:48;9.00;;;8.20;;
19664;SDS011;9980;51.020;7.772;2023-06-22T12:41:15;10.35;;;9.32;;
19664;SDS011;9980;51.020;7.772;2023-06-22T12:43:42;10.68;;;9.57;;
19664;SDS011;9980;51.020;7.772;2023-06-22T12:46:09;11.68;;;8.82;;
19664;SDS011;9980;51.020;7.772;2023-06-22T12:48:36;11.15;;;10.02;;
19664;SDS011;9980;51.020;7.772;2023-06-22T12:51:08;12.25;;;9.50;;
19664;SDS011;9980;51.020;7.772;2023-06-22T12:53:35;11.25;;;9.98;;
19664;SDS011;9980;51.020;7.772;2023-06-22T12:56:02;11.98;;;10.77;;
19664;SDS011;9980;51.020;7.772;2023-06-22T12:58:30;12.02;;;10.60;;
19664;SDS011;9980;51.020;7.772;2023-06-22T13:00:57;11.65;;;10.55;;
19664;SDS011;9980;51.020;7.772;2023-06-22T13:03:24;11.30;;;10.23;;
19664;SDS011;9980;51.020;7.772;2023-06-22T13:05:53;10.88;;;9.85;;
19664;SDS011;9980;51.020;7.772;2023-06-22T13:08:20;10.48;;;9.10;;
19664;SDS011;9980;51.020;7.772;2023-06-22T13:10:47;11.00;;;9.93;;
19664;SDS011;9980;51.020;7.772;2023-06-22T13:13:14;10.75;;;9.75;;
19664;SDS011;9980;51.020;7.772;2023-06-22T13:15:41;10.07;;;9.18;;
19664;SDS011;9980;51.020;7.772;2023-06-22T13:18:08;9.60;;;8.70;;
19664;SDS011;9980;51.020;7.772;2023-06-22T13:20:35;10.02;;;9.02;;
19664;SDS011;9980;51.020;7.772;2023-06-22T13:23:02;9.90;;;8.98;;
19664;SDS011;9980;51.020;7.772;2023-06-22T13:25:29;9.25;;;8.35;;
19664;SDS011;9980;51.020;7.772;2023-06-22T13:27:56;10.85;;;9.25;;
19664;SDS011;9980;51.020;7.772;2023-06-22T13:30:23;9.40;;;8.50;;
19664;SDS011;9980;51.020;7.772;2023-06-22T13:32:50;10.45;;;9.45;;
19664;SDS011;9980;51.020;7.772;2023-06-22T13:35:17;9.65;;;8.65;;
19664;SDS011;9980;51.020;7.772;2023-06-22T13:37:44;10.23;;;9.25;;
19664;SDS011;9980;51.020;7.772;2023-06-22T13:40:11;10.68;;;9.57;;
19664;SDS011;9980;51.020;7.772;2023-06-22T13:42:38;10.15;;;8.90;;
19664;SDS011;9980;51.020;7.772;2023-06-22T13:45:06;10.55;;;9.27;;
19664;SDS011;9980;51.020;7.772;2023-06-22T13:47:33;9.75;;;8.80;;
19664;SDS011;9980;51.020;7.772;2023-06-22T13:50:00;10.63;;;8.93;;
19664;SDS011;9980;51.020;7.772;2023-06-22T13:52:27;12.15;;;10.93;;
19664;SDS011;9980;51.020;7.772;2023-06-22T13:54:55;11.18;;;10.07;;
19664;SDS011;9980;51.020;7.772;2023-06-22T13:57:22;11.55;;;10.35;;
19664;SDS011;9980;51.020;7.772;2023-06-22T13:59:49;10.73;;;9.65;;
19664;SDS011;9980;51.020;7.772;2023-06-22T14:02:15;10.90;;;9.90;;
19664;SDS011;9980;51.020;7.772;2023-06-22T14:04:43;10.35;;;9.32;;
19664;SDS011;9980;51.020;7.772;2023-06-22T14:07:10;10.68;;;9.68;;
19664;SDS011;9980;51.020;7.772;2023-06-22T14:09:38;10.60;;;9.52;;
19664;SDS011;9980;51.020;7.772;2023-06-22T14:12:05;10.38;;;9.35;;
19664;SDS011;9980;51.020;7.772;2023-06-22T14:14:33;10.55;;;9.52;;
19664;SDS011;9980;51.020;7.772;2023-06-22T14:17:00;10.30;;;9.30;;
19664;SDS011;9980;51.020;7.772;2023-06-22T14:19:27;11.13;;;8.98;;
19664;SDS011;9980;51.020;7.772;2023-06-22T14:21:54;10.88;;;9.80;;
19664;SDS011;9980;51.020;7.772;2023-06-22T14:24:23;10.13;;;9.13;;
19664;SDS011;9980;51.020;7.772;2023-06-22T14:26:53;9.65;;;8.75;;
19664;SDS011;9980;51.020;7.772;2023-06-22T14:29:21;10.48;;;9.43;;
19664;SDS011;9980;51.020;7.772;2023-06-22T14:31:49;10.00;;;9.00;;
19664;SDS011;9980;51.020;7.772;2023-06-22T14:34:16;10.40;;;9.35;;
19664;SDS011;9980;51.020;7.772;2023-06-22T14:36:43;10.27;;;9.30;;
19664;SDS011;9980;51.020;7.772;2023-06-22T14:39:10;10.68;;;9.45;;
19664;SDS011;9980;51.020;7.772;2023-06-22T14:41:37;10.35;;;9.35;;
19664;SDS011;9980;51.020;7.772;2023-06-22T14:44:04;9.95;;;9.00;;
19664;SDS011;9980;51.020;7.772;2023-06-22T14:46:31;10.27;;;9.35;;
19664;SDS011;9980;51.020;7.772;2023-06-22T14:48:58;11.00;;;9.95;;
19664;SDS011;9980;51.020;7.772;2023-06-22T14:51:25;10.48;;;9.40;;
19664;SDS011;9980;51.020;7.772;2023-06-22T14:53:53;9.85;;;8.95;;
19664;SDS011;9980;51.020;7.772;2023-06-22T14:56:19;10.27;;;9.27;;
19664;SDS011;9980;51.020;7.772;2023-06-22T14:58:46;11.02;;;9.82;;
19664;SDS011;9980;51.020;7.772;2023-06-22T15:01:13;12.13;;;10.20;;
19664;SDS011;9980;51.020;7.772;2023-06-22T15:03:43;11.05;;;9.95;;
19664;SDS011;9980;51.020;7.772;2023-06-22T15:06:10;9.65;;;8.80;;
19664;SDS011;9980;51.020;7.772;2023-06-22T15:08:38;10.43;;;9.45;;